Time;durP1;ratioP1;P1;durP2;ratioP2;P2;SDS_P1;SDS_P2;PMS_P1;PMS_P2;Temp;Humidity;BMP_temperature;BMP_pressure;BME280_temperature;BME280_humidity;BME280_pressure;Samples;Min_cycle;Max_cycle;Signal;HPM_P1;HPM_P2
2021/07/17 00:02:00;;;;;;;7.85;4.33;;;;;;;19.82;100.00;100394.45;1825929;77;20916;-88
2021/07/17 00:04:46;;;;;;;7.78;4.03;;;;;;;19.80;100.00;100395.36;1824601;78;21077;-89
2021/07/17 00:07:32;;;;;;;7.15;4.62;;;;;;;19.79;100.00;100399.30;1811102;78;20947;-91
2021/07/17 00:10:24;;;;;;;9.15;3.45;;;;;;;19.78;100.00;100397.66;1805890;78;21022;-89
2021/07/17 00:13:10;;;;;;;7.00;3.55;;;;;;;19.75;100.00;100405.50;1805605;78;20931;-91
2021/07/17 00:15:57;;;;;;;5.85;4.03;;;;;;;19.73;100.00;100393.97;1825209;78;20952;-91
2021/07/17 00:18:45;;;;;;;8.45;3.98;;;;;;;19.74;100.00;100392.81;1836968;77;21003;-88
2021/07/17 00:21:30;;;;;;;8.38;4.45;;;;;;;19.74;100.00;100392.81;1804737;78;21018;-88
2021/07/17 00:24:15;;;;;;;8.53;4.05;;;;;;;19.74;100.00;100397.55;1807860;78;20983;-91
2021/07/17 00:27:01;;;;;;;5.92;3.60;;;;;;;19.73;100.00;100393.14;1835712;77;20939;-88
2021/07/17 00:29:47;;;;;;;10.68;5.10;;;;;;;19.72;100.00;100389.56;1808402;78;20959;-88
2021/07/17 00:32:31;;;;;;;8.33;3.83;;;;;;;19.69;100.00;100384.72;1805917;79;20979;-89
2021/07/17 00:35:17;;;;;;;7.65;3.67;;;;;;;19.65;100.00;100390.66;1822872;78;21260;-91
2021/07/17 00:38:02;;;;;;;4.85;3.20;;;;;;;19.52;100.00;100381.51;1836111;77;20928;-90
2021/07/17 00:40:47;;;;;;;4.65;3.40;;;;;;;19.52;100.00;100381.51;1792910;77;20965;-91
2021/07/17 00:43:33;;;;;;;6.28;3.17;;;;;;;19.44;100.00;100372.72;1837935;78;21007;-88
2021/07/17 00:46:18;;;;;;;7.70;3.55;;;;;;;19.40;100.00;100376.50;1835010;78;21015;-88
2021/07/17 00:49:07;;;;;;;8.63;3.87;;;;;;;19.36;100.00;100380.52;1798673;77;20971;-91
2021/07/17 00:51:52;;;;;;;7.53;4.37;;;;;;;19.33;100.00;100382.00;1823840;78;21034;-92
2021/07/17 00:54:38;;;;;;;7.58;4.25;;;;;;;19.33;100.00;100388.12;1762264;81;21552;-92
2021/07/17 00:57:23;;;;;;;6.37;4.75;;;;;;;19.32;100.00;100383.17;1824903;77;21814;-92
2021/07/17 01:00:11;;;;;;;8.10;4.25;;;;;;;19.33;100.00;100377.85;1785721;79;21192;-91
2021/07/17 01:02:58;;;;;;;8.45;4.17;;;;;;;19.33;100.00;100383.39;1735885;81;21009;-89
2021/07/17 01:05:44;;;;;;;9.13;4.10;;;;;;;19.32;100.00;100384.55;1837491;77;21063;-92
2021/07/17 01:08:29;;;;;;;9.65;4.65;;;;;;;19.32;100.00;100387.91;1825031;78;21394;-92
2021/07/17 01:11:15;;;;;;;6.95;4.47;;;;;;;19.30;100.00;100381.31;1785176;79;21050;-88
2021/07/17 01:14:00;;;;;;;6.70;4.40;;;;;;;19.29;100.00;100376.93;1744702;81;21017;-91
2021/07/17 01:16:46;;;;;;;7.12;4.20;;;;;;;19.29;100.00;100376.93;1768630;79;21025;-89
2021/07/17 01:19:31;;;;;;;7.47;4.60;;;;;;;19.31;100.00;100376.02;1773864;79;21504;-90
2021/07/17 01:22:18;;;;;;;7.58;4.03;;;;;;;19.32;100.00;100372.67;1749777;79;21303;-88
2021/07/17 01:25:08;;;;;;;7.97;4.00;;;;;;;19.34;100.00;100379.48;1755095;79;21007;-88
2021/07/17 01:27:56;;;;;;;7.28;4.00;;;;;;;19.38;100.00;100380.19;1793555;79;21050;-88
2021/07/17 01:30:41;;;;;;;8.13;4.78;;;;;;;19.41;100.00;100381.72;1796950;79;21015;-88
2021/07/17 01:33:27;;;;;;;6.03;4.03;;;;;;;19.43;100.00;100377.20;1776725;79;21510;-89
2021/07/17 01:36:12;;;;;;;8.05;4.10;;;;;;;19.44;100.00;100370.53;1802714;78;20944;-89
2021/07/17 01:38:57;;;;;;;7.40;4.42;;;;;;;19.46;100.00;100375.96;1773496;78;20991;-91
2021/07/17 01:41:42;;;;;;;7.67;4.28;;;;;;;19.48;100.00;100383.91;1738530;81;20967;-89
2021/07/17 01:44:27;;;;;;;11.12;5.70;;;;;;;19.47;100.00;100381.73;1749513;79;21033;-92
2021/07/17 01:47:14;;;;;;;7.70;4.17;;;;;;;19.46;100.00;100375.96;1788190;79;21682;-89
2021/07/17 01:49:59;;;;;;;8.23;3.98;;;;;;;19.47;100.00;100379.53;1799943;78;20986;-93
2021/07/17 01:52:50;;;;;;;8.45;5.53;;;;;;;19.47;100.00;100378.95;1781540;79;21521;-92
2021/07/17 01:55:35;;;;;;;7.30;3.90;;;;;;;19.47;100.00;100383.69;1805217;79;21021;-89
2021/07/17 01:58:21;;;;;;;7.70;4.30;;;;;;;19.46;100.00;100385.66;1822363;78;20995;-92
2021/07/17 02:01:05;;;;;;;9.28;4.60;;;;;;;19.43;100.00;100385.52;1796440;78;21555;-88
2021/07/17 02:03:51;;;;;;;6.83;4.30;;;;;;;19.43;100.00;100385.52;1819980;77;21022;-89
2021/07/17 02:06:37;;;;;;;6.83;4.53;;;;;;;19.42;100.00;100386.09;1788015;79;21028;-92
2021/07/17 02:09:22;;;;;;;6.72;4.08;;;;;;;19.42;100.00;100385.29;1733273;80;20962;-89
2021/07/17 02:12:08;;;;;;;7.97;4.28;;;;;;;19.41;100.00;100380.88;1777154;79;21006;-92
2021/07/17 02:14:53;;;;;;;9.03;4.83;;;;;;;19.41;100.00;100380.88;1773928;79;21542;-93
2021/07/17 02:17:39;;;;;;;10.05;4.65;;;;;;;19.42;100.00;100390.83;1768648;79;20931;-89
2021/07/17 02:20:24;;;;;;;9.25;4.65;;;;;;;19.41;100.00;100377.56;1715751;82;21053;-88
2021/07/17 02:23:09;;;;;;;10.78;5.62;;;;;;;19.42;100.00;100376.39;1833708;77;20935;-89
2021/07/17 02:25:55;;;;;;;7.42;4.08;;;;;;;19.43;100.00;100381.36;1763142;81;21006;-89
2021/07/17 02:28:41;;;;;;;9.70;5.05;;;;;;;19.42;100.00;100372.23;1829513;77;21406;-93
2021/07/17 02:31:25;;;;;;;8.90;4.85;;;;;;;19.48;100.00;100376.98;1847371;77;20986;-88
2021/07/17 02:34:12;;;;;;;8.35;5.05;;;;;;;19.54;100.00;100371.48;1847361;77;20975;-88
2021/07/17 02:36:57;;;;;;;8.58;4.75;;;;;;;19.54;100.00;100371.48;1797103;79;21034;-94
2021/07/17 02:39:43;;;;;;;10.65;5.00;;;;;;;19.61;100.00;100382.82;1766248;80;21074;-89
2021/07/17 02:42:29;;;;;;;10.13;5.33;;;;;;;19.65;100.00;100381.55;1796112;79;21505;-90
2021/07/17 02:45:14;;;;;;;9.23;4.97;;;;;;;19.69;100.00;100383.33;1752205;80;21548;-89
2021/07/17 02:47:59;;;;;;;11.00;5.40;;;;;;;19.74;100.00;100381.72;1740252;81;20991;-89
2021/07/17 02:50:44;;;;;;;6.58;4.15;;;;;;;19.80;100.00;100378.73;1737981;81;21090;-88
2021/07/17 02:53:29;;;;;;;8.03;5.10;;;;;;;19.85;100.00;100381.27;1763572;81;21002;-94
2021/07/17 02:56:14;;;;;;;10.15;5.20;;;;;;;19.91;100.00;100379.91;1763527;81;21055;-89
2021/07/17 02:58:59;;;;;;;7.80;4.85;;;;;;;19.95;100.00;100371.95;1743685;81;21371;-89
2021/07/17 03:01:45;;;;;;;9.95;5.47;;;;;;;20.05;100.00;100378.19;1767230;80;21022;-94
2021/07/17 03:04:29;;;;;;;9.63;4.60;;;;;;;20.13;100.00;100378.67;1774580;79;21029;-94
2021/07/17 03:07:15;;;;;;;9.60;5.90;;;;;;;20.22;100.00;100381.33;1807325;78;20987;-90
2021/07/17 03:10:00;;;;;;;10.65;6.17;;;;;;;20.28;100.00;100386.89;1835184;77;21047;-94
2021/07/17 03:12:45;;;;;;;9.15;5.25;;;;;;;20.35;100.00;100386.54;1805400;77;20971;-94
2021/07/17 03:15:32;;;;;;;14.93;6.78;;;;;;;20.45;100.00;100387.21;1817235;78;21078;-90
2021/07/17 03:18:19;;;;;;;12.73;6.60;;;;;;;20.56;100.00;100391.18;1837650;78;21392;-89
2021/07/17 03:21:04;;;;;;;14.38;7.30;;;;;;;20.67;100.00;100381.20;1836211;77;20972;-96
2021/07/17 03:23:51;;;;;;;10.60;6.15;;;;;;;20.76;100.00;100379.11;1812661;77;20987;-89
2021/07/17 03:26:36;;;;;;;14.25;7.53;;;;;;;20.85;100.00;100377.61;1806862;78;21049;-95
2021/07/17 03:29:23;;;;;;;9.63;5.42;;;;;;;20.95;100.00;100377.11;1805972;78;20978;-94
2021/07/17 03:32:11;;;;;;;15.10;7.00;;;;;;;21.08;100.00;100375.69;1807547;78;20967;-90
2021/07/17 03:34:56;;;;;;;12.85;6.30;;;;;;;21.18;100.00;100376.58;1837714;78;21019;-89
2021/07/17 03:37:41;;;;;;;14.78;6.60;;;;;;;21.27;100.00;100374.47;1837506;78;21366;-89
2021/07/17 03:40:26;;;;;;;11.78;6.53;;;;;;;21.39;100.00;100374.45;1830528;78;21039;-89
2021/07/17 03:43:12;;;;;;;9.80;6.37;;;;;;;21.51;100.00;100368.58;1835801;78;20926;-95
2021/07/17 03:45:58;;;;;;;10.78;5.65;;;;;;;21.63;100.00;100371.30;1835064;78;20955;-89
2021/07/17 03:48:44;;;;;;;12.73;6.55;;;;;;;21.75;100.00;100369.84;1748881;81;21495;-90
2021/07/17 03:51:29;;;;;;;13.30;6.60;;;;;;;21.90;100.00;100367.65;1828903;78;20994;-90
2021/07/17 03:54:15;;;;;;;10.13;6.10;;;;;;;22.04;100.00;100362.23;1831142;78;20991;-90
2021/07/17 03:56:59;;;;;;;13.03;6.40;;;;;;;22.20;100.00;100353.31;1765293;81;20944;-95
2021/07/17 03:59:45;;;;;;;12.88;6.05;;;;;;;22.40;100.00;100355.58;1837925;78;20980;-96
2021/07/17 04:02:39;;;;;;;12.30;5.70;;;;;;;22.58;100.00;100362.97;1815249;77;21376;-89
2021/07/17 04:05:19;;;;;;;10.70;6.47;;;;;;;22.75;100.00;100361.17;1804352;79;21540;-90
2021/07/17 04:08:05;;;;;;;14.07;6.22;;;;;;;22.93;100.00;100365.73;1803975;78;21432;-95
2021/07/17 04:10:50;;;;;;;10.28;6.58;;;;;;;23.10;100.00;100363.14;1814230;78;21094;-90
2021/07/17 04:13:35;;;;;;;12.40;7.17;;;;;;;23.29;100.00;100362.90;1836239;77;20980;-90
2021/07/17 04:16:21;;;;;;;13.48;6.80;;;;;;;23.44;100.00;100364.78;1764685;80;20972;-89
2021/07/17 04:19:06;;;;;;;13.83;6.97;;;;;;;23.60;100.00;100368.89;1769367;80;21003;-89
2021/07/17 04:21:51;;;;;;;15.43;7.17;;;;;;;23.78;100.00;100370.63;1818058;78;20943;-95
2021/07/17 04:24:37;;;;;;;16.12;7.80;;;;;;;23.93;100.00;100368.30;1806530;78;20958;-94
2021/07/17 04:27:22;;;;;;;11.93;7.75;;;;;;;24.11;100.00;100371.98;1816432;78;21401;-88
2021/07/17 04:30:10;;;;;;;13.00;6.70;;;;;;;24.27;100.00;100370.47;1836974;77;21517;-93
2021/07/17 04:32:56;;;;;;;8.48;5.35;;;;;;;24.38;100.00;100368.07;1767092;79;21113;-94
2021/07/17 04:35:41;;;;;;;10.43;5.62;;;;;;;24.48;99.62;100367.22;1769388;79;20970;-88
2021/07/17 04:38:26;;;;;;;8.38;4.67;;;;;;;24.61;99.15;100367.23;1752745;81;21049;-88
2021/07/17 04:41:11;;;;;;;6.33;4.60;;;;;;;24.75;97.60;100370.21;1805501;79;20896;-89
2021/07/17 04:43:58;;;;;;;6.83;4.53;;;;;;;24.91;94.23;100380.43;1829911;78;21396;-95
2021/07/17 04:46:44;;;;;;;7.10;4.80;;;;;;;24.99;92.25;100368.95;1738910;81;21090;-88
2021/07/17 04:49:29;;;;;;;6.60;4.22;;;;;;;25.07;91.44;100364.25;1836659;78;20957;-88
2021/07/17 04:52:14;;;;;;;6.75;4.67;;;;;;;25.17;91.06;100367.00;1766645;80;21086;-95
2021/07/17 04:55:00;;;;;;;8.95;4.22;;;;;;;25.30;90.57;100364.98;1798752;79;20971;-93
2021/07/17 04:57:46;;;;;;;7.42;4.42;;;;;;;25.40;89.62;100365.49;1803109;78;21018;-90
2021/07/17 05:00:31;;;;;;;6.67;4.62;;;;;;;25.52;89.97;100362.43;1812628;78;20929;-94
2021/07/17 05:03:16;;;;;;;8.13;4.42;;;;;;;25.71;89.59;100369.20;1723689;82;21066;-89
2021/07/17 05:06:04;;;;;;;7.20;4.45;;;;;;;25.91;87.86;100369.81;1785589;79;20979;-94
2021/07/17 05:08:49;;;;;;;7.67;4.50;;;;;;;26.10;85.81;100372.99;1735886;82;21058;-89
2021/07/17 05:11:34;;;;;;;7.90;4.17;;;;;;;26.29;85.08;100382.36;1798784;79;21069;-88
2021/07/17 05:14:20;;;;;;;8.23;4.60;;;;;;;26.42;83.54;100380.05;1729322;82;20993;-88
2021/07/17 05:17:05;;;;;;;5.83;4.03;;;;;;;26.56;82.82;100383.78;1764680;80;21046;-89
2021/07/17 05:19:51;;;;;;;7.15;3.90;;;;;;;26.70;81.86;100375.25;1825554;78;20982;-89
2021/07/17 05:22:36;;;;;;;7.65;4.20;;;;;;;26.82;81.17;100370.72;1757822;81;21030;-89
2021/07/17 05:25:21;;;;;;;6.47;4.42;;;;;;;26.91;79.78;100367.58;1799675;79;21010;-94
2021/07/17 05:28:06;;;;;;;8.40;4.85;;;;;;;26.99;78.89;100379.81;1762098;81;21577;-89
2021/07/17 05:30:51;;;;;;;8.13;4.60;;;;;;;27.13;78.61;100380.49;1738529;81;21033;-89
2021/07/17 05:33:37;;;;;;;9.30;5.12;;;;;;;27.24;78.30;100384.77;1725797;81;21059;-90
2021/07/17 05:36:22;;;;;;;5.80;3.85;;;;;;;27.37;77.39;100382.40;1762056;80;21436;-92
2021/07/17 05:39:07;;;;;;;6.62;4.03;;;;;;;27.51;76.98;100383.05;1807470;78;21513;-93
2021/07/17 05:41:53;;;;;;;6.70;4.28;;;;;;;27.65;76.23;100380.29;1753174;79;20977;-91
2021/07/17 05:44:38;;;;;;;6.70;4.53;;;;;;;27.78;75.37;100382.91;1744892;81;21341;-90
2021/07/17 05:47:23;;;;;;;8.25;5.12;;;;;;;27.95;74.51;100393.20;1774689;79;21055;-94
2021/07/17 05:50:09;;;;;;;8.48;5.10;;;;;;;28.03;73.78;100389.98;1824636;77;20979;-90
2021/07/17 05:52:54;;;;;;;6.85;4.58;;;;;;;28.12;73.50;100394.42;1768507;79;21127;-94
2021/07/17 05:55:39;;;;;;;7.97;4.42;;;;;;;28.15;73.01;100391.60;1800244;78;21026;-93
2021/07/17 05:58:25;;;;;;;6.15;4.40;;;;;;;28.16;73.04;100394.59;1743330;81;21099;-95
2021/07/17 06:01:10;;;;;;;8.63;4.10;;;;;;;28.20;72.96;100398.22;1800431;76;21549;-90
2021/07/17 06:03:55;;;;;;;6.10;4.03;;;;;;;28.25;74.04;100397.81;1765805;80;21003;-94
2021/07/17 06:06:41;;;;;;;9.00;4.67;;;;;;;28.38;73.16;100401.62;1784633;80;20970;-91
2021/07/17 06:09:26;;;;;;;5.42;3.75;;;;;;;28.56;72.33;100387.00;1784406;80;21024;-94
2021/07/17 06:12:13;;;;;;;10.60;4.95;;;;;;;28.75;71.00;100386.34;1830585;78;20992;-94
2021/07/17 06:14:58;;;;;;;9.48;4.03;;;;;;;28.92;70.43;100389.71;1833958;78;21019;-96
2021/07/17 06:17:44;;;;;;;6.90;4.42;;;;;;;29.08;69.99;100382.25;1711131;82;21066;-90
2021/07/17 06:20:30;;;;;;;8.43;3.98;;;;;;;29.21;69.12;100382.01;1807776;78;21085;-92
2021/07/17 06:23:15;;;;;;;7.25;4.25;;;;;;;29.30;67.75;100380.97;1773270;80;21061;-92
2021/07/17 06:26:00;;;;;;;5.12;3.67;;;;;;;29.28;67.89;100377.76;1819699;78;20951;-91
2021/07/17 06:28:46;;;;;;;5.75;3.75;;;;;;;29.27;68.82;100382.38;1800431;79;20979;-92
2021/07/17 06:31:31;;;;;;;5.37;3.40;;;;;;;29.30;69.14;100381.55;1800798;79;20999;-93
2021/07/17 06:34:16;;;;;;;5.28;4.17;;;;;;;29.36;67.36;100391.98;1800066;79;21002;-90
2021/07/17 06:37:01;;;;;;;4.47;3.77;;;;;;;29.39;68.08;100381.91;1802437;78;21042;-91
2021/07/17 06:39:46;;;;;;;5.70;4.08;;;;;;;29.47;67.23;100382.67;1800878;79;21022;-91
2021/07/17 06:42:32;;;;;;;5.22;3.90;;;;;;;29.49;66.73;100375.42;1769466;79;20982;-91
2021/07/17 06:45:18;;;;;;;6.03;4.15;;;;;;;29.56;66.85;100381.62;1808324;78;20998;-92
2021/07/17 06:48:04;;;;;;;6.15;4.30;;;;;;;29.64;66.66;100382.38;1803045;78;21388;-93
2021/07/17 06:50:49;;;;;;;9.68;3.62;;;;;;;29.71;65.79;100373.92;1824667;78;21081;-92
2021/07/17 06:53:38;;;;;;;4.70;3.55;;;;;;;29.95;65.32;100377.78;1803924;78;21065;-93
2021/07/17 06:56:23;;;;;;;5.97;3.52;;;;;;;30.11;63.80;100373.02;1806851;78;21034;-91
2021/07/17 06:59:08;;;;;;;5.28;3.90;;;;;;;30.14;63.38;100373.59;1786461;79;21460;-90
2021/07/17 07:01:53;;;;;;;4.67;3.17;;;;;;;30.28;62.90;100376.94;1816030;78;21505;-94
2021/07/17 07:04:38;;;;;;;6.72;3.95;;;;;;;30.51;63.10;100375.69;1747121;82;21095;-92
2021/07/17 07:07:23;;;;;;;5.87;3.60;;;;;;;30.75;62.19;100373.84;1807806;78;21331;-92
2021/07/17 07:10:10;;;;;;;6.83;4.25;;;;;;;30.94;61.13;100373.86;1806342;78;21137;-92
2021/07/17 07:12:55;;;;;;;5.25;3.45;;;;;;;30.99;60.99;100369.78;1805233;79;21038;-91
2021/07/17 07:15:41;;;;;;;6.35;4.03;;;;;;;30.90;61.06;100367.45;1806479;78;20963;-94
2021/07/17 07:18:26;;;;;;;7.97;3.60;;;;;;;30.85;61.16;100370.73;1812878;78;21442;-93
2021/07/17 07:21:12;;;;;;;4.95;2.98;;;;;;;30.81;61.00;100369.34;1811868;76;20932;-93
2021/07/17 07:23:58;;;;;;;5.28;3.67;;;;;;;30.98;60.15;100375.22;1804974;79;20986;-94
2021/07/17 07:26:43;;;;;;;4.75;3.45;;;;;;;31.05;58.91;100368.08;1803649;78;20939;-91
2021/07/17 07:29:28;;;;;;;5.15;3.35;;;;;;;31.07;59.01;100367.05;1803187;78;21018;-93
2021/07/17 07:38:54;;;;;;;4.37;3.20;;;;;;;31.41;57.62;100362.02;1888558;76;23279;-90
2021/07/17 07:41:39;;;;;;;4.20;3.60;;;;;;;31.36;57.99;100363.88;1847262;77;21559;-92
2021/07/17 07:44:24;;;;;;;4.08;3.00;;;;;;;31.48;58.38;100359.09;1840110;77;20979;-93
2021/07/17 07:47:09;;;;;;;5.40;3.15;;;;;;;31.62;58.33;100360.27;1839993;77;21053;-94
2021/07/17 07:49:56;;;;;;;5.53;3.37;;;;;;;31.68;57.07;100357.17;1839890;77;20971;-91
2021/07/17 07:52:41;;;;;;;4.62;3.25;;;;;;;31.61;55.97;100358.69;1838698;77;20965;-90
2021/07/17 07:55:26;;;;;;;4.20;2.92;;;;;;;31.55;56.08;100353.31;1825469;78;20937;-94
2021/07/17 07:58:11;;;;;;;3.22;2.90;;;;;;;31.50;55.79;100356.62;1812352;77;21521;-95
2021/07/17 08:00:56;;;;;;;4.05;3.20;;;;;;;31.53;56.75;100349.31;1776333;77;21013;-92
2021/07/17 08:03:42;;;;;;;4.95;3.30;;;;;;;31.63;55.25;100346.97;1810341;77;21471;-91
2021/07/17 08:06:27;;;;;;;4.03;3.00;;;;;;;31.74;56.37;100348.21;1810941;78;21024;-94
2021/07/17 08:09:12;;;;;;;4.03;3.05;;;;;;;31.82;54.01;100345.45;1836500;78;21010;-92
2021/07/17 08:11:57;;;;;;;3.15;2.67;;;;;;;31.95;52.96;100348.50;1838588;77;21089;-94
2021/07/17 08:14:42;;;;;;;6.53;3.20;;;;;;;32.10;54.03;100345.64;1839974;77;20978;-93
2021/07/17 08:17:28;;;;;;;4.08;3.17;;;;;;;32.14;51.20;100340.09;1838981;77;21005;-92
2021/07/17 08:20:13;;;;;;;4.92;3.00;;;;;;;32.09;52.94;100341.99;1837817;77;21121;-90
2021/07/17 08:22:59;;;;;;;3.75;2.80;;;;;;;32.15;52.80;100339.49;1838361;78;21749;-90
2021/07/17 08:25:44;;;;;;;5.08;3.47;;;;;;;32.21;52.94;100342.62;1832047;77;20944;-90
2021/07/17 08:28:29;;;;;;;3.92;3.30;;;;;;;32.24;51.98;100333.27;1811860;78;20985;-90
2021/07/17 08:31:15;;;;;;;4.42;3.15;;;;;;;32.32;52.44;100336.14;1810587;79;20980;-90
2021/07/17 08:34:00;;;;;;;4.45;3.22;;;;;;;32.47;51.42;100340.32;1814379;77;21010;-91
2021/07/17 08:36:46;;;;;;;4.22;3.02;;;;;;;32.46;49.98;100334.47;1812451;78;21511;-94
2021/07/17 08:39:33;;;;;;;4.28;3.50;;;;;;;32.30;49.63;100332.97;1815201;78;21431;-90
2021/07/17 08:42:20;;;;;;;4.47;3.30;;;;;;;32.22;51.09;100332.89;1837169;76;20979;-91
2021/07/17 08:45:06;;;;;;;4.72;3.22;;;;;;;32.24;50.64;100335.47;1832472;78;20992;-91
2021/07/17 08:47:52;;;;;;;4.08;3.10;;;;;;;32.22;49.90;100334.31;1838471;78;20978;-90
2021/07/17 08:50:37;;;;;;;3.58;2.92;;;;;;;32.32;50.61;100334.13;1838133;78;21523;-91
2021/07/17 08:53:22;;;;;;;6.20;3.05;;;;;;;32.52;49.79;100334.81;1810358;78;20996;-91
2021/07/17 08:56:07;;;;;;;3.15;2.58;;;;;;;32.61;48.82;100339.89;1792908;78;21035;-95
2021/07/17 08:58:52;;;;;;;3.27;2.50;;;;;;;32.54;50.88;100343.64;1808255;77;20960;-93
2021/07/17 09:01:37;;;;;;;3.87;2.85;;;;;;;32.52;48.64;100338.44;1791133;79;21027;-93
2021/07/17 09:04:26;;;;;;;4.20;2.98;;;;;;;32.50;48.79;100338.06;1809058;78;21056;-94
2021/07/17 09:07:11;;;;;;;5.45;2.95;;;;;;;32.49;49.75;100335.07;1823394;77;20986;-93
2021/07/17 09:09:57;;;;;;;3.20;2.72;;;;;;;32.59;48.04;100333.86;1805386;79;21513;-94
2021/07/17 09:12:42;;;;;;;4.30;2.77;;;;;;;32.73;49.84;100335.00;1806356;79;21010;-91
2021/07/17 09:15:27;;;;;;;4.20;3.22;;;;;;;32.80;48.04;100333.45;1809949;78;21499;-90
2021/07/17 09:18:12;;;;;;;3.80;2.87;;;;;;;32.80;48.10;100336.27;1827166;78;20975;-91
2021/07/17 09:21:12;;;;;;;4.20;3.17;;;;;;;32.81;48.78;100338.48;1805429;78;21030;-91
2021/07/17 09:24:00;;;;;;;3.77;2.77;;;;;;;32.92;48.08;100338.45;1831392;77;21031;-90
2021/07/17 09:26:59;;;;;;;4.60;3.08;;;;;;;32.98;45.66;100328.83;1824895;77;21048;-96
2021/07/17 09:29:45;;;;;;;3.85;2.58;;;;;;;32.84;46.13;100331.95;1816111;78;21009;-94
2021/07/17 09:32:31;;;;;;;4.60;3.10;;;;;;;32.77;46.82;100328.66;1828281;78;20970;-96
2021/07/17 09:35:25;;;;;;;4.10;3.20;;;;;;;32.76;48.31;100329.88;1837752;77;20978;-93
2021/07/17 09:38:10;;;;;;;3.17;2.42;;;;;;;32.72;46.48;100327.14;1830473;77;21583;-92
2021/07/17 09:40:59;;;;;;;4.12;2.87;;;;;;;32.66;48.05;100328.06;1798517;79;20929;-93
2021/07/17 09:43:44;;;;;;;6.00;3.37;;;;;;;32.66;48.69;100326.66;1814808;77;20990;-92
2021/07/17 09:46:31;;;;;;;4.00;2.80;;;;;;;32.67;47.74;100319.78;1787838;79;20998;-92
2021/07/17 09:49:18;;;;;;;4.60;3.08;;;;;;;32.68;47.12;100319.95;1817690;77;21606;-89
2021/07/17 09:52:11;;;;;;;4.62;2.70;;;;;;;32.76;46.76;100319.98;1823065;77;20938;-94
2021/07/17 09:55:12;;;;;;;4.05;2.90;;;;;;;32.77;47.04;100319.55;1814766;78;20962;-95
2021/07/17 09:57:57;;;;;;;3.08;2.60;;;;;;;32.87;47.22;100317.74;1826489;77;21090;-91
2021/07/17 10:00:43;;;;;;;3.22;2.40;;;;;;;32.92;47.38;100311.57;1796250;77;21406;-91
2021/07/17 10:03:34;;;;;;;4.53;2.95;;;;;;;32.90;47.71;100314.66;1812132;79;21070;-91
2021/07/17 10:06:35;;;;;;;2.75;2.30;;;;;;;32.90;47.10;100316.07;1789749;79;21022;-92
2021/07/17 10:09:34;;;;;;;3.25;2.55;;;;;;;32.81;47.11;100310.98;1778795;79;21038;-90
2021/07/17 10:12:22;;;;;;;3.65;2.67;;;;;;;32.84;48.20;100310.12;1799620;79;21021;-92
2021/07/17 10:15:10;;;;;;;3.50;2.90;;;;;;;32.94;47.88;100304.86;1783837;78;21107;-90
2021/07/17 10:17:55;;;;;;;3.85;3.20;;;;;;;32.99;46.17;100302.14;1790201;78;21593;-96
2021/07/17 10:20:40;;;;;;;2.85;2.47;;;;;;;32.97;47.08;100309.64;1726655;79;21588;-95
2021/07/17 10:23:25;;;;;;;5.15;4.03;;;;;;;33.05;47.91;100308.10;1804702;78;20990;-95
2021/07/17 10:26:11;;;;;;;5.45;2.50;;;;;;;33.18;47.14;100309.02;1735949;80;21025;-91
2021/07/17 10:29:02;;;;;;;3.87;2.55;;;;;;;33.29;46.71;100314.45;1782083;80;21440;-95
2021/07/17 10:31:48;;;;;;;3.50;3.00;;;;;;;33.34;47.04;100301.98;1783444;80;21021;-96
2021/07/17 10:34:34;;;;;;;4.20;2.62;;;;;;;33.27;45.14;100306.39;1809466;79;20932;-93
2021/07/17 10:37:21;;;;;;;5.60;3.10;;;;;;;33.19;46.18;100308.59;1801690;79;20993;-95
2021/07/17 10:40:12;;;;;;;10.98;2.95;;;;;;;33.18;45.86;100299.11;1801820;79;21005;-95
2021/07/17 10:42:59;;;;;;;4.72;3.10;;;;;;;33.14;45.49;100285.67;1802819;79;21040;-96
2021/07/17 10:45:45;;;;;;;4.75;3.30;;;;;;;33.14;45.40;100286.46;1795950;79;21379;-95
2021/07/17 10:48:34;;;;;;;4.28;3.12;;;;;;;33.08;46.87;100281.13;1813981;79;20987;-91
2021/07/17 10:51:29;;;;;;;4.67;3.08;;;;;;;33.18;47.38;100277.87;1785590;80;21006;-96
2021/07/17 10:54:18;;;;;;;4.45;3.00;;;;;;;33.39;45.44;100270.93;1814629;79;20981;-92
2021/07/17 10:57:04;;;;;;;4.78;3.33;;;;;;;33.62;46.00;100275.66;1788747;79;21399;-95
2021/07/17 10:59:49;;;;;;;4.53;2.92;;;;;;;33.76;44.79;100277.34;1812295;78;21006;-95
2021/07/17 11:02:35;;;;;;;3.30;2.60;;;;;;;33.74;43.34;100274.95;1786303;80;20919;-95
2021/07/17 11:05:25;;;;;;;3.95;2.92;;;;;;;33.61;43.87;100271.24;1787771;79;21310;-96
2021/07/17 11:08:37;;;;;;;4.65;2.98;;;;;;;33.43;45.41;100269.41;1786049;80;21018;-96
2021/07/17 11:11:39;;;;;;;4.65;3.40;;;;;;;33.15;45.83;100264.61;1781001;79;20945;-95
2021/07/17 11:14:24;;;;;;;4.12;3.35;;;;;;;32.82;45.75;100267.33;1814808;79;21420;-96
2021/07/17 11:17:10;;;;;;;3.83;2.60;;;;;;;32.61;46.69;100264.94;1785613;80;20922;-95
2021/07/17 11:19:55;;;;;;;3.75;2.75;;;;;;;32.58;48.71;100260.16;1814206;79;20978;-95
2021/07/17 11:22:40;;;;;;;4.10;2.72;;;;;;;32.82;48.08;100255.22;1785703;79;21061;-95
2021/07/17 11:25:25;;;;;;;4.53;3.05;;;;;;;33.08;46.94;100253.44;1814070;79;20978;-95
2021/07/17 11:28:10;;;;;;;3.35;2.37;;;;;;;33.37;46.09;100249.33;1755888;80;20965;-95
2021/07/17 11:30:55;;;;;;;3.98;2.90;;;;;;;33.76;45.50;100244.14;1813733;79;21053;-96
2021/07/17 11:33:40;;;;;;;5.60;3.37;;;;;;;34.21;43.03;100239.74;1800573;79;20996;-93
2021/07/17 11:36:26;;;;;;;5.40;3.75;;;;;;;34.44;42.95;100235.84;1802364;79;21027;-95
2021/07/17 11:39:16;;;;;;;3.83;2.90;;;;;;;34.47;43.87;100231.50;1791260;79;21017;-95
2021/07/17 11:42:04;;;;;;;;;;;;;;;34.68;41.56;100225.84;1832561;78;21011;-92
2021/07/17 11:44:53;;;;;;;3.67;2.90;;;;;;;34.86;42.21;100223.87;1839081;77;20140;-95
2021/07/17 11:47:39;;;;;;;3.17;2.75;;;;;;;35.08;42.35;100225.41;1838401;78;20996;-95
2021/07/17 11:50:24;;;;;;;4.55;2.75;;;;;;;35.19;41.01;100224.30;1838915;78;20939;-96
2021/07/17 11:53:15;;;;;;;3.55;2.90;;;;;;;35.15;41.31;100218.75;1833844;78;21010;-91
2021/07/17 11:56:00;;;;;;;3.93;3.23;;;;;;;35.09;41.89;100220.56;1834564;78;21850;-91
2021/07/17 11:58:45;;;;;;;4.75;3.17;;;;;;;35.18;40.89;100215.00;1816914;76;20975;-91
2021/07/17 12:01:30;;;;;;;4.05;3.10;;;;;;;35.29;42.27;100218.93;1825894;78;21065;-93
2021/07/17 12:04:31;;;;;;;3.85;2.98;;;;;;;35.36;41.19;100211.56;1799362;78;21090;-91
2021/07/17 12:07:26;;;;;;;3.37;3.08;;;;;;;35.39;40.59;100212.09;1794660;79;21045;-91
2021/07/17 12:10:20;;;;;;;3.92;3.25;;;;;;;35.77;40.27;100198.45;1775533;79;21465;-91
2021/07/17 12:15:48;;;;;;;3.50;2.80;;;;;;;35.76;39.67;100192.61;1848959;76;22510;-91
2021/07/17 12:18:33;;;;;;;5.30;3.27;;;;;;;35.46;40.34;100190.56;1788901;78;21021;-91
2021/07/17 12:21:18;;;;;;;4.12;2.72;;;;;;;35.21;42.38;100188.52;1761311;80;20970;-90
2021/07/17 12:24:04;;;;;;;4.80;2.80;;;;;;;35.03;42.58;100183.41;1775692;75;21154;-94
2021/07/17 12:26:49;;;;;;;3.47;3.12;;;;;;;35.10;41.24;100185.26;1722016;80;21072;-90
2021/07/17 12:29:35;;;;;;;4.47;2.98;;;;;;;35.25;40.89;100188.42;1761263;80;21049;-90
2021/07/17 12:32:20;;;;;;;4.85;3.08;;;;;;;35.42;40.46;100184.19;1733851;82;21044;-90
2021/07/17 12:35:06;;;;;;;5.83;2.85;;;;;;;35.64;41.23;100173.55;1748590;81;21082;-90
2021/07/17 12:37:52;;;;;;;4.20;2.83;;;;;;;35.68;40.87;100175.63;1749851;81;21098;-91
2021/07/17 12:40:59;;;;;;;3.45;2.70;;;;;;;35.74;40.64;100176.64;1750997;81;21091;-90
2021/07/17 12:43:50;;;;;;;3.35;2.70;;;;;;;35.88;41.28;100173.30;1750050;81;21597;-90
2021/07/17 12:46:38;;;;;;;3.70;2.62;;;;;;;36.14;40.17;100178.89;1745227;81;21100;-90
2021/07/17 12:49:23;;;;;;;3.80;2.70;;;;;;;36.11;39.41;100172.08;1744066;81;20941;-90
2021/07/17 12:52:08;;;;;;;4.35;2.87;;;;;;;36.01;40.22;100166.77;1723509;81;21029;-89
2021/07/17 12:55:06;;;;;;;3.95;2.62;;;;;;;36.19;39.45;100168.97;1708431;80;21052;-90
2021/07/17 12:57:52;;;;;;;3.30;2.90;;;;;;;36.49;38.40;100166.00;1746071;81;21074;-89
2021/07/17 13:00:38;;;;;;;3.65;3.00;;;;;;;36.78;38.68;100153.69;1747198;80;21098;-90